sensor_id;sensor_type;location;lat;lon;timestamp;P1;durP1;ratioP1;P2;durP2;ratioP2
57655;SDS011;43482;53.334;6.744;2022-08-06T00:01:52;0.20;;;0.20;;
57655;SDS011;43482;53.334;6.744;2022-08-06T00:04:18;0.82;;;0.32;;
57655;SDS011;43482;53.334;6.744;2022-08-06T00:06:44;1.58;;;0.50;;
57655;SDS011;43482;53.334;6.744;2022-08-06T00:09:09;0.80;;;0.43;;
57655;SDS011;43482;53.334;6.744;2022-08-06T00:11:36;1.75;;;0.40;;
57655;SDS011;43482;53.334;6.744;2022-08-06T00:14:03;0.35;;;0.25;;
57655;SDS011;43482;53.334;6.744;2022-08-06T00:16:28;0.73;;;0.30;;
57655;SDS011;43482;53.334;6.744;2022-08-06T00:18:53;0.25;;;0.20;;
57655;SDS011;43482;53.334;6.744;2022-08-06T00:21:19;0.20;;;0.20;;
57655;SDS011;43482;53.334;6.744;2022-08-06T00:23:45;0.43;;;0.20;;
57655;SDS011;43482;53.334;6.744;2022-08-06T00:26:10;0.40;;;0.20;;
57655;SDS011;43482;53.334;6.744;2022-08-06T00:28:35;0.40;;;0.30;;
57655;SDS011;43482;53.334;6.744;2022-08-06T00:31:01;0.47;;;0.47;;
57655;SDS011;43482;53.334;6.744;2022-08-06T00:33:28;0.28;;;0.17;;
57655;SDS011;43482;53.334;6.744;2022-08-06T00:35:54;0.70;;;0.30;;
57655;SDS011;43482;53.334;6.744;2022-08-06T00:38:20;1.10;;;0.90;;
57655;SDS011;43482;53.334;6.744;2022-08-06T00:40:45;0.35;;;0.30;;
57655;SDS011;43482;53.334;6.744;2022-08-06T00:43:12;0.20;;;0.17;;
57655;SDS011;43482;53.334;6.744;2022-08-06T00:45:37;0.50;;;0.25;;
57655;SDS011;43482;53.334;6.744;2022-08-06T00:48:03;1.23;;;0.43;;
57655;SDS011;43482;53.334;6.744;2022-08-06T00:50:29;0.28;;;0.20;;
57655;SDS011;43482;53.334;6.744;2022-08-06T00:52:56;0.20;;;0.17;;
57655;SDS011;43482;53.334;6.744;2022-08-06T00:55:21;1.38;;;0.60;;
57655;SDS011;43482;53.334;6.744;2022-08-06T00:57:47;0.15;;;0.10;;
57655;SDS011;43482;53.334;6.744;2022-08-06T01:00:12;0.35;;;0.30;;
57655;SDS011;43482;53.334;6.744;2022-08-06T01:02:38;0.28;;;0.28;;
57655;SDS011;43482;53.334;6.744;2022-08-06T01:05:04;0.98;;;0.40;;
57655;SDS011;43482;53.334;6.744;2022-08-06T01:07:30;0.70;;;0.50;;
57655;SDS011;43482;53.334;6.744;2022-08-06T01:09:55;0.20;;;0.20;;
57655;SDS011;43482;53.334;6.744;2022-08-06T01:12:20;0.30;;;0.20;;
57655;SDS011;43482;53.334;6.744;2022-08-06T01:14:46;0.47;;;0.35;;
57655;SDS011;43482;53.334;6.744;2022-08-06T01:17:14;0.30;;;0.20;;
57655;SDS011;43482;53.334;6.744;2022-08-06T01:19:48;0.50;;;0.20;;
57655;SDS011;43482;53.334;6.744;2022-08-06T01:25:02;1.02;;;0.40;;
57655;SDS011;43482;53.334;6.744;2022-08-06T01:30:18;0.30;;;0.28;;
57655;SDS011;43482;53.334;6.744;2022-08-06T01:35:30;1.00;;;0.30;;
57655;SDS011;43482;53.334;6.744;2022-08-06T01:38:11;0.57;;;0.40;;
57655;SDS011;43482;53.334;6.744;2022-08-06T01:40:41;0.47;;;0.32;;
57655;SDS011;43482;53.334;6.744;2022-08-06T01:43:09;0.40;;;0.38;;
57655;SDS011;43482;53.334;6.744;2022-08-06T01:45:38;3.78;;;0.73;;
57655;SDS011;43482;53.334;6.744;2022-08-06T01:48:06;0.50;;;0.35;;
57655;SDS011;43482;53.334;6.744;2022-08-06T01:50:39;0.50;;;0.30;;
57655;SDS011;43482;53.334;6.744;2022-08-06T01:53:11;0.50;;;0.30;;
57655;SDS011;43482;53.334;6.744;2022-08-06T01:55:40;0.65;;;0.35;;
57655;SDS011;43482;53.334;6.744;2022-08-06T01:58:08;0.52;;;0.22;;
57655;SDS011;43482;53.334;6.744;2022-08-06T02:00:37;0.52;;;0.38;;
57655;SDS011;43482;53.334;6.744;2022-08-06T02:03:09;0.88;;;0.70;;
57655;SDS011;43482;53.334;6.744;2022-08-06T02:05:50;0.47;;;0.40;;
57655;SDS011;43482;53.334;6.744;2022-08-06T02:08:18;6.00;;;0.60;;
57655;SDS011;43482;53.334;6.744;2022-08-06T02:10:46;0.43;;;0.20;;
57655;SDS011;43482;53.334;6.744;2022-08-06T02:13:14;0.68;;;0.38;;
57655;SDS011;43482;53.334;6.744;2022-08-06T02:15:42;0.70;;;0.60;;
57655;SDS011;43482;53.334;6.744;2022-08-06T02:18:09;0.82;;;0.70;;
57655;SDS011;43482;53.334;6.744;2022-08-06T02:20:37;0.60;;;0.50;;
57655;SDS011;43482;53.334;6.744;2022-08-06T02:23:09;1.38;;;0.50;;
57655;SDS011;43482;53.334;6.744;2022-08-06T02:25:38;0.65;;;0.57;;
57655;SDS011;43482;53.334;6.744;2022-08-06T02:28:06;0.57;;;0.50;;
57655;SDS011;43482;53.334;6.744;2022-08-06T02:30:38;1.67;;;0.57;;
57655;SDS011;43482;53.334;6.744;2022-08-06T02:33:07;0.30;;;0.20;;
57655;SDS011;43482;53.334;6.744;2022-08-06T02:35:35;2.30;;;0.80;;
57655;SDS011;43482;53.334;6.744;2022-08-06T02:41:03;2.10;;;0.80;;
57655;SDS011;43482;53.334;6.744;2022-08-06T02:43:37;0.45;;;0.30;;
57655;SDS011;43482;53.334;6.744;2022-08-06T02:48:44;0.52;;;0.40;;
57655;SDS011;43482;53.334;6.744;2022-08-06T02:51:15;0.40;;;0.32;;
57655;SDS011;43482;53.334;6.744;2022-08-06T02:53:54;1.48;;;0.43;;
57655;SDS011;43482;53.334;6.744;2022-08-06T02:56:27;0.52;;;0.43;;
57655;SDS011;43482;53.334;6.744;2022-08-06T02:58:55;0.40;;;0.32;;
57655;SDS011;43482;53.334;6.744;2022-08-06T03:01:25;1.13;;;0.40;;
57655;SDS011;43482;53.334;6.744;2022-08-06T03:03:55;1.50;;;0.93;;
57655;SDS011;43482;53.334;6.744;2022-08-06T03:06:24;0.50;;;0.40;;
57655;SDS011;43482;53.334;6.744;2022-08-06T03:08:54;0.63;;;0.30;;
57655;SDS011;43482;53.334;6.744;2022-08-06T03:11:22;2.45;;;0.50;;
57655;SDS011;43482;53.334;6.744;2022-08-06T03:13:48;0.90;;;0.55;;
57655;SDS011;43482;53.334;6.744;2022-08-06T03:16:15;0.75;;;0.55;;
57655;SDS011;43482;53.334;6.744;2022-08-06T03:18:41;0.75;;;0.35;;
57655;SDS011;43482;53.334;6.744;2022-08-06T03:21:10;0.85;;;0.80;;
57655;SDS011;43482;53.334;6.744;2022-08-06T03:23:37;0.60;;;0.30;;
57655;SDS011;43482;53.334;6.744;2022-08-06T03:26:04;0.77;;;0.50;;
57655;SDS011;43482;53.334;6.744;2022-08-06T03:28:33;2.97;;;0.70;;
57655;SDS011;43482;53.334;6.744;2022-08-06T03:30:59;0.88;;;0.73;;
57655;SDS011;43482;53.334;6.744;2022-08-06T03:33:27;0.50;;;0.30;;
57655;SDS011;43482;53.334;6.744;2022-08-06T03:35:53;1.00;;;0.70;;
57655;SDS011;43482;53.334;6.744;2022-08-06T03:38:20;0.88;;;0.40;;
57655;SDS011;43482;53.334;6.744;2022-08-06T03:40:48;1.20;;;0.80;;
57655;SDS011;43482;53.334;6.744;2022-08-06T03:43:15;1.10;;;1.00;;
57655;SDS011;43482;53.334;6.744;2022-08-06T03:45:44;0.70;;;0.47;;
57655;SDS011;43482;53.334;6.744;2022-08-06T03:48:18;1.00;;;0.80;;
57655;SDS011;43482;53.334;6.744;2022-08-06T03:50:48;1.00;;;0.57;;
57655;SDS011;43482;53.334;6.744;2022-08-06T03:53:18;0.90;;;0.80;;
57655;SDS011;43482;53.334;6.744;2022-08-06T03:55:46;0.80;;;0.70;;
57655;SDS011;43482;53.334;6.744;2022-08-06T03:58:13;3.72;;;0.85;;
57655;SDS011;43482;53.334;6.744;2022-08-06T04:00:41;0.60;;;0.43;;
57655;SDS011;43482;53.334;6.744;2022-08-06T04:03:12;2.28;;;0.65;;
57655;SDS011;43482;53.334;6.744;2022-08-06T04:05:40;2.25;;;0.50;;
57655;SDS011;43482;53.334;6.744;2022-08-06T04:08:07;5.93;;;0.88;;
57655;SDS011;43482;53.334;6.744;2022-08-06T04:10:41;1.20;;;0.73;;
57655;SDS011;43482;53.334;6.744;2022-08-06T04:13:09;1.42;;;0.77;;
57655;SDS011;43482;53.334;6.744;2022-08-06T04:15:37;1.10;;;0.63;;
57655;SDS011;43482;53.334;6.744;2022-08-06T04:18:04;0.75;;;0.60;;
57655;SDS011;43482;53.334;6.744;2022-08-06T04:20:32;1.35;;;1.02;;
57655;SDS011;43482;53.334;6.744;2022-08-06T04:22:59;0.55;;;0.55;;
57655;SDS011;43482;53.334;6.744;2022-08-06T04:25:26;0.75;;;0.60;;
57655;SDS011;43482;53.334;6.744;2022-08-06T04:27:53;3.95;;;1.02;;
57655;SDS011;43482;53.334;6.744;2022-08-06T04:30:23;0.77;;;0.57;;
57655;SDS011;43482;53.334;6.744;2022-08-06T04:32:52;0.65;;;0.40;;
57655;SDS011;43482;53.334;6.744;2022-08-06T04:35:18;1.20;;;0.82;;
57655;SDS011;43482;53.334;6.744;2022-08-06T04:37:45;1.25;;;0.82;;
57655;SDS011;43482;53.334;6.744;2022-08-06T04:40:10;1.88;;;0.70;;
57655;SDS011;43482;53.334;6.744;2022-08-06T04:42:36;1.05;;;0.65;;
57655;SDS011;43482;53.334;6.744;2022-08-06T04:45:03;1.73;;;0.70;;
57655;SDS011;43482;53.334;6.744;2022-08-06T04:47:32;1.17;;;0.95;;
57655;SDS011;43482;53.334;6.744;2022-08-06T04:49:57;0.90;;;0.60;;
57655;SDS011;43482;53.334;6.744;2022-08-06T04:52:25;1.02;;;0.68;;
57655;SDS011;43482;53.334;6.744;2022-08-06T04:54:52;1.58;;;1.48;;
57655;SDS011;43482;53.334;6.744;2022-08-06T04:57:18;0.63;;;0.47;;
57655;SDS011;43482;53.334;6.744;2022-08-06T04:59:43;1.23;;;0.80;;
57655;SDS011;43482;53.334;6.744;2022-08-06T05:02:09;0.93;;;0.82;;
57655;SDS011;43482;53.334;6.744;2022-08-06T05:04:37;1.05;;;0.63;;
57655;SDS011;43482;53.334;6.744;2022-08-06T05:09:35;1.02;;;0.55;;
57655;SDS011;43482;53.334;6.744;2022-08-06T05:12:03;1.10;;;0.90;;
57655;SDS011;43482;53.334;6.744;2022-08-06T05:14:37;0.93;;;0.60;;
57655;SDS011;43482;53.334;6.744;2022-08-06T05:17:12;1.10;;;0.50;;
57655;SDS011;43482;53.334;6.744;2022-08-06T05:19:42;0.45;;;0.30;;
57655;SDS011;43482;53.334;6.744;2022-08-06T05:24:38;0.82;;;0.60;;
57655;SDS011;43482;53.334;6.744;2022-08-06T05:27:05;3.80;;;0.93;;
57655;SDS011;43482;53.334;6.744;2022-08-06T05:29:31;1.02;;;0.60;;
57655;SDS011;43482;53.334;6.744;2022-08-06T05:31:59;0.95;;;0.50;;
57655;SDS011;43482;53.334;6.744;2022-08-06T05:34:26;1.63;;;0.85;;
57655;SDS011;43482;53.334;6.744;2022-08-06T05:36:52;4.32;;;1.05;;
57655;SDS011;43482;53.334;6.744;2022-08-06T05:39:17;3.92;;;0.73;;
57655;SDS011;43482;53.334;6.744;2022-08-06T05:41:44;0.77;;;0.57;;
57655;SDS011;43482;53.334;6.744;2022-08-06T05:44:10;1.60;;;0.50;;
57655;SDS011;43482;53.334;6.744;2022-08-06T05:46:36;0.70;;;0.57;;
57655;SDS011;43482;53.334;6.744;2022-08-06T05:49:08;1.00;;;0.65;;
57655;SDS011;43482;53.334;6.744;2022-08-06T05:51:58;1.17;;;0.60;;
57655;SDS011;43482;53.334;6.744;2022-08-06T05:54:44;1.17;;;0.60;;
57655;SDS011;43482;53.334;6.744;2022-08-06T05:57:17;0.82;;;0.55;;
57655;SDS011;43482;53.334;6.744;2022-08-06T05:59:49;0.88;;;0.50;;
57655;SDS011;43482;53.334;6.744;2022-08-06T06:02:20;4.03;;;0.70;;
57655;SDS011;43482;53.334;6.744;2022-08-06T06:04:47;0.70;;;0.40;;
57655;SDS011;43482;53.334;6.744;2022-08-06T06:07:13;1.00;;;0.63;;
57655;SDS011;43482;53.334;6.744;2022-08-06T06:09:40;1.20;;;0.77;;
57655;SDS011;43482;53.334;6.744;2022-08-06T06:12:07;0.63;;;0.40;;
57655;SDS011;43482;53.334;6.744;2022-08-06T06:19:44;0.85;;;0.40;;
57655;SDS011;43482;53.334;6.744;2022-08-06T06:22:24;0.30;;;0.25;;
57655;SDS011;43482;53.334;6.744;2022-08-06T06:30:13;0.60;;;0.50;;
57655;SDS011;43482;53.334;6.744;2022-08-06T06:32:57;2.58;;;0.50;;
57655;SDS011;43482;53.334;6.744;2022-08-06T06:43:39;1.73;;;0.55;;
57655;SDS011;43482;53.334;6.744;2022-08-06T06:46:15;0.82;;;0.40;;
57655;SDS011;43482;53.334;6.744;2022-08-06T06:48:55;0.55;;;0.50;;
57655;SDS011;43482;53.334;6.744;2022-08-06T06:53:57;0.40;;;0.30;;
57655;SDS011;43482;53.334;6.744;2022-08-06T06:56:24;0.43;;;0.30;;
57655;SDS011;43482;53.334;6.744;2022-08-06T07:01:24;2.35;;;0.28;;
57655;SDS011;43482;53.334;6.744;2022-08-06T07:03:51;0.95;;;0.20;;
57655;SDS011;43482;53.334;6.744;2022-08-06T07:06:19;0.35;;;0.20;;
57655;SDS011;43482;53.334;6.744;2022-08-06T07:08:46;0.20;;;0.10;;
57655;SDS011;43482;53.334;6.744;2022-08-06T07:11:14;0.75;;;0.30;;
57655;SDS011;43482;53.334;6.744;2022-08-06T07:13:43;0.10;;;0.10;;
57655;SDS011;43482;53.334;6.744;2022-08-06T07:16:11;0.88;;;0.22;;
57655;SDS011;43482;53.334;6.744;2022-08-06T07:18:39;1.83;;;0.20;;
57655;SDS011;43482;53.334;6.744;2022-08-06T07:21:07;2.00;;;0.40;;
57655;SDS011;43482;53.334;6.744;2022-08-06T07:23:32;1.13;;;0.35;;
57655;SDS011;43482;53.334;6.744;2022-08-06T07:25:59;0.77;;;0.35;;
57655;SDS011;43482;53.334;6.744;2022-08-06T07:28:26;1.98;;;0.25;;
57655;SDS011;43482;53.334;6.744;2022-08-06T07:30:54;0.20;;;0.20;;
57655;SDS011;43482;53.334;6.744;2022-08-06T07:33:21;2.97;;;0.80;;
57655;SDS011;43482;53.334;6.744;2022-08-06T07:35:47;0.73;;;0.20;;
57655;SDS011;43482;53.334;6.744;2022-08-06T07:38:16;1.05;;;0.20;;
57655;SDS011;43482;53.334;6.744;2022-08-06T07:40:47;2.75;;;0.30;;
57655;SDS011;43482;53.334;6.744;2022-08-06T07:43:19;0.45;;;0.15;;
57655;SDS011;43482;53.334;6.744;2022-08-06T07:45:50;1.60;;;0.28;;
57655;SDS011;43482;53.334;6.744;2022-08-06T07:48:18;0.73;;;0.30;;
57655;SDS011;43482;53.334;6.744;2022-08-06T07:51:02;1.20;;;0.30;;
57655;SDS011;43482;53.334;6.744;2022-08-06T07:53:29;3.55;;;0.57;;
57655;SDS011;43482;53.334;6.744;2022-08-06T07:55:56;1.50;;;0.43;;
57655;SDS011;43482;53.334;6.744;2022-08-06T07:58:22;0.50;;;0.30;;
57655;SDS011;43482;53.334;6.744;2022-08-06T08:00:48;1.40;;;0.28;;
57655;SDS011;43482;53.334;6.744;2022-08-06T08:03:14;0.13;;;0.08;;
57655;SDS011;43482;53.334;6.744;2022-08-06T08:05:59;0.65;;;0.55;;
57655;SDS011;43482;53.334;6.744;2022-08-06T08:08:45;2.63;;;0.43;;
57655;SDS011;43482;53.334;6.744;2022-08-06T08:11:12;0.10;;;0.10;;
57655;SDS011;43482;53.334;6.744;2022-08-06T08:13:39;0.50;;;0.30;;
57655;SDS011;43482;53.334;6.744;2022-08-06T08:16:06;1.85;;;0.55;;
57655;SDS011;43482;53.334;6.744;2022-08-06T08:18:33;0.85;;;0.20;;
57655;SDS011;43482;53.334;6.744;2022-08-06T08:20:59;1.25;;;0.20;;
57655;SDS011;43482;53.334;6.744;2022-08-06T08:23:27;1.60;;;0.70;;
57655;SDS011;43482;53.334;6.744;2022-08-06T08:25:56;1.95;;;0.25;;
57655;SDS011;43482;53.334;6.744;2022-08-06T08:28:23;0.30;;;0.20;;
57655;SDS011;43482;53.334;6.744;2022-08-06T08:30:49;1.65;;;0.20;;
57655;SDS011;43482;53.334;6.744;2022-08-06T08:33:14;0.50;;;0.25;;
57655;SDS011;43482;53.334;6.744;2022-08-06T08:35:40;0.70;;;0.30;;
57655;SDS011;43482;53.334;6.744;2022-08-06T08:38:07;2.17;;;0.22;;
57655;SDS011;43482;53.334;6.744;2022-08-06T08:40:32;0.70;;;0.30;;
57655;SDS011;43482;53.334;6.744;2022-08-06T08:42:59;0.80;;;0.47;;
57655;SDS011;43482;53.334;6.744;2022-08-06T08:45:26;1.65;;;0.30;;
57655;SDS011;43482;53.334;6.744;2022-08-06T08:47:53;2.75;;;0.20;;
57655;SDS011;43482;53.334;6.744;2022-08-06T08:50:22;0.98;;;0.35;;
57655;SDS011;43482;53.334;6.744;2022-08-06T08:55:38;2.35;;;0.40;;
57655;SDS011;43482;53.334;6.744;2022-08-06T08:58:05;1.17;;;0.55;;
57655;SDS011;43482;53.334;6.744;2022-08-06T09:00:31;1.02;;;0.43;;
57655;SDS011;43482;53.334;6.744;2022-08-06T09:02:57;3.45;;;0.47;;
57655;SDS011;43482;53.334;6.744;2022-08-06T09:05:23;1.70;;;0.70;;
57655;SDS011;43482;53.334;6.744;2022-08-06T09:07:49;1.38;;;0.55;;
57655;SDS011;43482;53.334;6.744;2022-08-06T09:10:16;2.25;;;0.63;;
57655;SDS011;43482;53.334;6.744;2022-08-06T09:12:42;0.60;;;0.38;;
57655;SDS011;43482;53.334;6.744;2022-08-06T09:15:07;0.95;;;0.73;;
57655;SDS011;43482;53.334;6.744;2022-08-06T09:17:33;1.27;;;0.50;;
57655;SDS011;43482;53.334;6.744;2022-08-06T09:19:59;1.55;;;0.63;;
57655;SDS011;43482;53.334;6.744;2022-08-06T09:22:24;1.60;;;0.68;;
57655;SDS011;43482;53.334;6.744;2022-08-06T09:24:50;1.83;;;0.70;;
57655;SDS011;43482;53.334;6.744;2022-08-06T09:27:16;1.13;;;0.45;;
57655;SDS011;43482;53.334;6.744;2022-08-06T09:29:50;0.65;;;0.38;;
57655;SDS011;43482;53.334;6.744;2022-08-06T09:32:34;0.68;;;0.35;;
57655;SDS011;43482;53.334;6.744;2022-08-06T09:35:01;0.63;;;0.50;;
57655;SDS011;43482;53.334;6.744;2022-08-06T09:37:28;0.55;;;0.30;;
57655;SDS011;43482;53.334;6.744;2022-08-06T09:39:54;0.75;;;0.43;;
57655;SDS011;43482;53.334;6.744;2022-08-06T09:42:53;0.80;;;0.45;;
57655;SDS011;43482;53.334;6.744;2022-08-06T09:45:16;4.38;;;0.50;;
57655;SDS011;43482;53.334;6.744;2022-08-06T09:47:47;0.80;;;0.47;;
57655;SDS011;43482;53.334;6.744;2022-08-06T09:53:22;0.77;;;0.50;;
57655;SDS011;43482;53.334;6.744;2022-08-06T09:55:49;1.15;;;0.63;;
57655;SDS011;43482;53.334;6.744;2022-08-06T09:58:25;2.60;;;0.60;;
57655;SDS011;43482;53.334;6.744;2022-08-06T10:00:53;1.20;;;0.57;;
57655;SDS011;43482;53.334;6.744;2022-08-06T10:03:18;2.42;;;0.80;;
57655;SDS011;43482;53.334;6.744;2022-08-06T10:05:44;1.77;;;0.82;;
57655;SDS011;43482;53.334;6.744;2022-08-06T10:08:12;1.30;;;0.60;;
57655;SDS011;43482;53.334;6.744;2022-08-06T10:10:42;1.13;;;0.68;;
57655;SDS011;43482;53.334;6.744;2022-08-06T10:13:11;1.73;;;1.05;;
57655;SDS011;43482;53.334;6.744;2022-08-06T10:15:42;1.77;;;0.90;;
57655;SDS011;43482;53.334;6.744;2022-08-06T10:18:10;1.65;;;0.95;;
57655;SDS011;43482;53.334;6.744;2022-08-06T10:21:26;2.33;;;0.85;;
57655;SDS011;43482;53.334;6.744;2022-08-06T10:23:52;1.98;;;0.82;;
57655;SDS011;43482;53.334;6.744;2022-08-06T10:26:22;4.88;;;1.00;;
57655;SDS011;43482;53.334;6.744;2022-08-06T10:28:51;1.30;;;0.70;;
57655;SDS011;43482;53.334;6.744;2022-08-06T10:31:17;2.17;;;1.38;;
57655;SDS011;43482;53.334;6.744;2022-08-06T10:33:58;1.58;;;1.00;;
57655;SDS011;43482;53.334;6.744;2022-08-06T10:36:36;1.17;;;0.75;;
57655;SDS011;43482;53.334;6.744;2022-08-06T10:39:18;1.35;;;0.95;;
57655;SDS011;43482;53.334;6.744;2022-08-06T10:41:49;4.55;;;1.00;;
57655;SDS011;43482;53.334;6.744;2022-08-06T10:44:15;2.15;;;0.98;;
57655;SDS011;43482;53.334;6.744;2022-08-06T10:46:41;2.45;;;1.10;;
57655;SDS011;43482;53.334;6.744;2022-08-06T10:49:07;1.33;;;0.82;;
57655;SDS011;43482;53.334;6.744;2022-08-06T10:51:33;2.22;;;0.95;;
57655;SDS011;43482;53.334;6.744;2022-08-06T10:54:01;1.08;;;0.70;;
57655;SDS011;43482;53.334;6.744;2022-08-06T10:56:27;1.75;;;1.02;;
57655;SDS011;43482;53.334;6.744;2022-08-06T10:58:54;2.13;;;0.80;;
57655;SDS011;43482;53.334;6.744;2022-08-06T11:05:02;0.90;;;0.50;;
57655;SDS011;43482;53.334;6.744;2022-08-06T11:15:48;2.42;;;1.20;;
57655;SDS011;43482;53.334;6.744;2022-08-06T11:18:15;4.00;;;0.98;;
57655;SDS011;43482;53.334;6.744;2022-08-06T11:20:46;1.92;;;0.93;;
57655;SDS011;43482;53.334;6.744;2022-08-06T11:25:42;1.30;;;1.00;;
57655;SDS011;43482;53.334;6.744;2022-08-06T11:28:15;1.10;;;0.82;;
57655;SDS011;43482;53.334;6.744;2022-08-06T11:31:01;4.32;;;1.35;;
57655;SDS011;43482;53.334;6.744;2022-08-06T11:35:57;2.10;;;1.10;;
57655;SDS011;43482;53.334;6.744;2022-08-06T11:41:11;1.92;;;1.48;;
57655;SDS011;43482;53.334;6.744;2022-08-06T11:44:03;1.10;;;0.90;;
57655;SDS011;43482;53.334;6.744;2022-08-06T11:46:39;1.85;;;1.10;;
57655;SDS011;43482;53.334;6.744;2022-08-06T11:49:12;2.28;;;1.50;;
57655;SDS011;43482;53.334;6.744;2022-08-06T11:51:41;2.45;;;1.45;;
57655;SDS011;43482;53.334;6.744;2022-08-06T11:54:18;1.63;;;1.00;;
57655;SDS011;43482;53.334;6.744;2022-08-06T11:59:32;1.40;;;1.13;;
57655;SDS011;43482;53.334;6.744;2022-08-06T12:02:14;1.88;;;1.10;;
57655;SDS011;43482;53.334;6.744;2022-08-06T12:04:58;2.25;;;1.20;;
57655;SDS011;43482;53.334;6.744;2022-08-06T12:07:24;3.88;;;1.83;;
57655;SDS011;43482;53.334;6.744;2022-08-06T12:14:55;2.40;;;1.40;;
57655;SDS011;43482;53.334;6.744;2022-08-06T12:17:22;3.22;;;1.35;;
57655;SDS011;43482;53.334;6.744;2022-08-06T12:19:51;2.10;;;1.25;;
57655;SDS011;43482;53.334;6.744;2022-08-06T12:22:18;3.33;;;1.50;;
57655;SDS011;43482;53.334;6.744;2022-08-06T12:24:47;2.88;;;1.17;;
57655;SDS011;43482;53.334;6.744;2022-08-06T12:27:15;2.53;;;1.00;;
57655;SDS011;43482;53.334;6.744;2022-08-06T12:29:41;2.22;;;1.30;;
57655;SDS011;43482;53.334;6.744;2022-08-06T12:32:20;2.22;;;1.42;;
57655;SDS011;43482;53.334;6.744;2022-08-06T12:34:54;1.58;;;1.17;;
57655;SDS011;43482;53.334;6.744;2022-08-06T12:37:31;2.03;;;1.08;;
57655;SDS011;43482;53.334;6.744;2022-08-06T12:39:58;2.17;;;1.35;;
57655;SDS011;43482;53.334;6.744;2022-08-06T12:42:43;1.40;;;1.00;;
57655;SDS011;43482;53.334;6.744;2022-08-06T12:45:09;1.70;;;1.20;;
57655;SDS011;43482;53.334;6.744;2022-08-06T12:47:35;1.20;;;1.00;;
57655;SDS011;43482;53.334;6.744;2022-08-06T12:50:01;2.65;;;1.25;;
57655;SDS011;43482;53.334;6.744;2022-08-06T12:52:44;1.42;;;1.25;;
57655;SDS011;43482;53.334;6.744;2022-08-06T12:55:18;2.50;;;1.23;;
57655;SDS011;43482;53.334;6.744;2022-08-06T12:57:44;1.83;;;1.10;;
57655;SDS011;43482;53.334;6.744;2022-08-06T13:00:09;1.92;;;1.35;;
57655;SDS011;43482;53.334;6.744;2022-08-06T13:02:35;2.50;;;1.30;;
57655;SDS011;43482;53.334;6.744;2022-08-06T13:05:01;1.70;;;1.27;;
57655;SDS011;43482;53.334;6.744;2022-08-06T13:07:27;1.60;;;1.27;;
57655;SDS011;43482;53.334;6.744;2022-08-06T13:09:52;2.15;;;1.20;;
57655;SDS011;43482;53.334;6.744;2022-08-06T13:12:19;1.90;;;1.30;;
57655;SDS011;43482;53.334;6.744;2022-08-06T13:14:53;1.92;;;1.33;;
57655;SDS011;43482;53.334;6.744;2022-08-06T13:17:24;1.48;;;1.05;;
57655;SDS011;43482;53.334;6.744;2022-08-06T13:19:54;1.50;;;1.27;;
57655;SDS011;43482;53.334;6.744;2022-08-06T13:22:24;3.13;;;1.52;;
57655;SDS011;43482;53.334;6.744;2022-08-06T13:25:08;3.45;;;1.35;;
57655;SDS011;43482;53.334;6.744;2022-08-06T13:27:38;1.73;;;1.10;;
57655;SDS011;43482;53.334;6.744;2022-08-06T13:30:07;1.70;;;1.30;;
57655;SDS011;43482;53.334;6.744;2022-08-06T13:32:34;1.55;;;1.20;;
57655;SDS011;43482;53.334;6.744;2022-08-06T13:35:01;2.03;;;1.10;;
57655;SDS011;43482;53.334;6.744;2022-08-06T13:37:42;2.33;;;1.40;;
57655;SDS011;43482;53.334;6.744;2022-08-06T13:40:11;2.15;;;1.23;;
57655;SDS011;43482;53.334;6.744;2022-08-06T13:42:50;3.40;;;1.35;;
57655;SDS011;43482;53.334;6.744;2022-08-06T13:45:20;1.58;;;1.10;;
57655;SDS011;43482;53.334;6.744;2022-08-06T13:47:54;2.03;;;1.45;;
57655;SDS011;43482;53.334;6.744;2022-08-06T13:50:26;3.15;;;1.08;;
57655;SDS011;43482;53.334;6.744;2022-08-06T13:52:51;1.77;;;1.30;;
57655;SDS011;43482;53.334;6.744;2022-08-06T13:55:23;2.35;;;1.38;;
57655;SDS011;43482;53.334;6.744;2022-08-06T13:57:50;3.28;;;1.83;;
57655;SDS011;43482;53.334;6.744;2022-08-06T14:00:16;3.25;;;1.42;;
57655;SDS011;43482;53.334;6.744;2022-08-06T14:02:42;1.40;;;1.08;;
57655;SDS011;43482;53.334;6.744;2022-08-06T14:05:08;2.08;;;1.30;;
57655;SDS011;43482;53.334;6.744;2022-08-06T14:07:33;1.55;;;1.08;;
57655;SDS011;43482;53.334;6.744;2022-08-06T14:09:59;2.10;;;1.25;;
57655;SDS011;43482;53.334;6.744;2022-08-06T14:12:24;1.70;;;1.17;;
57655;SDS011;43482;53.334;6.744;2022-08-06T14:14:50;2.05;;;1.20;;
57655;SDS011;43482;53.334;6.744;2022-08-06T14:17:16;1.63;;;1.10;;
57655;SDS011;43482;53.334;6.744;2022-08-06T14:19:41;1.80;;;1.17;;
57655;SDS011;43482;53.334;6.744;2022-08-06T14:22:07;2.03;;;1.27;;
57655;SDS011;43482;53.334;6.744;2022-08-06T14:24:33;1.80;;;1.38;;
57655;SDS011;43482;53.334;6.744;2022-08-06T14:26:59;2.78;;;1.33;;
57655;SDS011;43482;53.334;6.744;2022-08-06T14:29:24;1.77;;;1.20;;
57655;SDS011;43482;53.334;6.744;2022-08-06T14:31:50;1.10;;;0.80;;
57655;SDS011;43482;53.334;6.744;2022-08-06T14:34:15;2.50;;;1.48;;
57655;SDS011;43482;53.334;6.744;2022-08-06T14:36:41;1.83;;;1.20;;
57655;SDS011;43482;53.334;6.744;2022-08-06T14:39:07;2.17;;;1.20;;
57655;SDS011;43482;53.334;6.744;2022-08-06T14:41:39;1.88;;;0.98;;
57655;SDS011;43482;53.334;6.744;2022-08-06T14:44:23;1.40;;;1.08;;
57655;SDS011;43482;53.334;6.744;2022-08-06T14:47:08;1.25;;;0.98;;
57655;SDS011;43482;53.334;6.744;2022-08-06T14:49:34;2.03;;;1.25;;
57655;SDS011;43482;53.334;6.744;2022-08-06T14:52:00;1.85;;;1.27;;
57655;SDS011;43482;53.334;6.744;2022-08-06T14:54:26;1.52;;;0.98;;
57655;SDS011;43482;53.334;6.744;2022-08-06T14:56:51;1.35;;;0.98;;
57655;SDS011;43482;53.334;6.744;2022-08-06T14:59:17;2.30;;;1.20;;
57655;SDS011;43482;53.334;6.744;2022-08-06T15:01:43;1.77;;;1.15;;
57655;SDS011;43482;53.334;6.744;2022-08-06T15:04:10;1.90;;;1.27;;
57655;SDS011;43482;53.334;6.744;2022-08-06T15:06:35;2.17;;;1.05;;
57655;SDS011;43482;53.334;6.744;2022-08-06T15:09:00;1.98;;;1.20;;
57655;SDS011;43482;53.334;6.744;2022-08-06T15:11:26;1.65;;;0.90;;
57655;SDS011;43482;53.334;6.744;2022-08-06T15:13:51;2.00;;;1.10;;
57655;SDS011;43482;53.334;6.744;2022-08-06T15:16:16;1.25;;;0.82;;
57655;SDS011;43482;53.334;6.744;2022-08-06T15:18:42;2.25;;;1.23;;
57655;SDS011;43482;53.334;6.744;2022-08-06T15:21:07;1.63;;;1.10;;
57655;SDS011;43482;53.334;6.744;2022-08-06T15:23:34;1.73;;;1.17;;
57655;SDS011;43482;53.334;6.744;2022-08-06T15:25:59;2.42;;;1.35;;
57655;SDS011;43482;53.334;6.744;2022-08-06T15:28:25;1.50;;;0.73;;
57655;SDS011;43482;53.334;6.744;2022-08-06T15:30:51;1.52;;;0.98;;
57655;SDS011;43482;53.334;6.744;2022-08-06T15:33:17;1.50;;;0.82;;
57655;SDS011;43482;53.334;6.744;2022-08-06T15:35:42;1.80;;;0.95;;
57655;SDS011;43482;53.334;6.744;2022-08-06T15:38:09;0.98;;;0.70;;
57655;SDS011;43482;53.334;6.744;2022-08-06T15:40:35;1.42;;;0.80;;
57655;SDS011;43482;53.334;6.744;2022-08-06T15:43:00;1.30;;;0.88;;
57655;SDS011;43482;53.334;6.744;2022-08-06T15:45:26;1.40;;;0.93;;
57655;SDS011;43482;53.334;6.744;2022-08-06T15:47:51;1.92;;;0.88;;
57655;SDS011;43482;53.334;6.744;2022-08-06T15:50:17;1.42;;;0.70;;
57655;SDS011;43482;53.334;6.744;2022-08-06T15:52:42;2.38;;;0.68;;
57655;SDS011;43482;53.334;6.744;2022-08-06T15:55:07;1.30;;;0.80;;
57655;SDS011;43482;53.334;6.744;2022-08-06T15:57:33;2.53;;;0.80;;
57655;SDS011;43482;53.334;6.744;2022-08-06T15:59:58;1.52;;;0.90;;
57655;SDS011;43482;53.334;6.744;2022-08-06T16:02:24;1.42;;;0.88;;
57655;SDS011;43482;53.334;6.744;2022-08-06T16:04:50;2.33;;;0.60;;
57655;SDS011;43482;53.334;6.744;2022-08-06T16:07:16;2.08;;;1.08;;
57655;SDS011;43482;53.334;6.744;2022-08-06T16:09:43;2.00;;;0.85;;
57655;SDS011;43482;53.334;6.744;2022-08-06T16:12:08;1.75;;;1.00;;
57655;SDS011;43482;53.334;6.744;2022-08-06T16:14:34;2.13;;;0.70;;